createdAt,value
2019-04-25T00:02:03.150Z,12.10
2019-04-25T00:04:31.601Z,11.90
2019-04-25T00:07:13.311Z,11.90
2019-04-25T00:09:44.060Z,11.90
2019-04-25T00:12:12.657Z,11.90
2019-04-25T00:14:41.684Z,11.80
2019-04-25T00:17:11.383Z,11.70
2019-04-25T00:19:40.717Z,11.70
2019-04-25T00:22:11.882Z,11.60
2019-04-25T00:24:43.251Z,11.60
2019-04-25T00:27:12.200Z,11.60
2019-04-25T00:29:43.367Z,11.50
2019-04-25T00:32:11.706Z,11.50
2019-04-25T00:34:43.172Z,11.50
2019-04-25T00:37:10.402Z,11.50
2019-04-25T00:39:41.313Z,11.40
2019-04-25T00:42:12.109Z,11.40
2019-04-25T00:44:42.825Z,11.40
2019-04-25T00:47:11.771Z,11.40
2019-04-25T00:49:43.060Z,11.30
2019-04-25T00:52:11.593Z,11.30
2019-04-25T00:54:41.434Z,11.30
2019-04-25T00:57:11.990Z,11.30
2019-04-25T00:59:43.906Z,11.30
2019-04-25T01:02:14.003Z,11.20
2019-04-25T01:04:43.731Z,11.20
2019-04-25T01:07:12.655Z,11.10
2019-04-25T01:09:42.336Z,11.10
2019-04-25T01:12:11.591Z,11.10
2019-04-25T01:14:41.887Z,11.10
2019-04-25T01:17:11.658Z,11.10
2019-04-25T01:19:40.188Z,11.10
2019-04-25T01:22:08.768Z,11.10
2019-04-25T01:24:37.250Z,11.10
2019-04-25T01:27:08.663Z,11.10
2019-04-25T01:29:37.123Z,11.00
2019-04-25T01:32:07.234Z,11.00
2019-04-25T01:34:37.370Z,11.00
2019-04-25T01:37:11.070Z,11.10
2019-04-25T01:39:41.221Z,11.00
2019-04-25T01:42:11.292Z,11.00
2019-04-25T01:44:41.325Z,10.90
2019-04-25T01:47:09.901Z,10.90
2019-04-25T01:49:38.374Z,10.80
2019-04-25T01:52:06.770Z,10.80
2019-04-25T01:54:35.174Z,10.80
2019-04-25T01:57:04.438Z,10.70
2019-04-25T01:59:34.188Z,10.70
2019-04-25T02:02:04.040Z,10.70
2019-04-25T02:04:34.132Z,10.70
2019-04-25T02:07:10.742Z,10.70
2019-04-25T02:09:39.199Z,10.60
2019-04-25T02:12:09.336Z,10.60
2019-04-25T02:14:37.822Z,10.60
2019-04-25T02:17:10.032Z,10.60
2019-04-25T02:19:38.436Z,10.50
2019-04-25T02:22:07.328Z,10.50
2019-04-25T02:24:35.731Z,10.50
2019-04-25T02:27:09.989Z,10.50
2019-04-25T02:29:38.399Z,10.50
2019-04-25T02:32:08.946Z,10.50
2019-04-25T02:34:37.117Z,10.50
2019-04-25T02:37:09.686Z,10.50
2019-04-25T02:39:38.416Z,10.50
2019-04-25T02:42:08.419Z,10.40
2019-04-25T02:44:38.770Z,10.40
2019-04-25T02:47:10.806Z,10.40
2019-04-25T02:49:40.945Z,10.40
2019-04-25T02:52:13.102Z,10.30
2019-04-25T02:54:41.204Z,10.40
2019-04-25T02:57:10.840Z,10.30
2019-04-25T02:59:39.322Z,10.30
2019-04-25T03:02:09.231Z,10.30
2019-04-25T03:04:37.883Z,10.30
2019-04-25T03:07:11.736Z,10.30
2019-04-25T03:09:44.886Z,10.30
2019-04-25T03:12:26.515Z,10.20
2019-04-25T03:14:44.599Z,10.20
2019-04-25T03:17:14.406Z,10.20
2019-04-25T03:19:44.615Z,10.20
2019-04-25T03:22:15.244Z,10.20
2019-04-25T03:24:45.857Z,10.20
2019-04-25T03:27:14.286Z,10.20
2019-04-25T03:29:44.341Z,10.20
2019-04-25T03:32:16.701Z,10.20
2019-04-25T03:34:43.477Z,10.20
2019-04-25T03:37:13.640Z,10.20
2019-04-25T03:39:43.677Z,10.20
2019-04-25T03:42:13.976Z,10.20
2019-04-25T03:44:43.825Z,10.20
2019-04-25T03:47:13.566Z,10.20
2019-04-25T03:49:43.407Z,10.20
2019-04-25T03:52:13.768Z,10.20
2019-04-25T03:54:43.413Z,10.20
2019-04-25T03:57:14.341Z,10.20
2019-04-25T03:59:43.679Z,10.20
2019-04-25T04:02:13.062Z,10.20
2019-04-25T04:04:43.523Z,10.20
2019-04-25T04:07:12.742Z,10.10
2019-04-25T04:09:43.508Z,10.00
2019-04-25T04:12:12.351Z,10.00
2019-04-25T04:14:40.911Z,10.00
2019-04-25T04:17:11.083Z,10.00
2019-04-25T04:19:41.132Z,10.00
2019-04-25T04:22:11.205Z,10.00
2019-04-25T04:24:41.409Z,10.00
2019-04-25T04:27:15.568Z,10.00
2019-04-25T04:29:44.239Z,10.00
2019-04-25T04:32:14.376Z,10.00
2019-04-25T04:34:45.193Z,10.10
2019-04-25T04:37:14.638Z,10.20
2019-04-25T04:39:43.733Z,10.20
2019-04-25T04:42:13.726Z,10.30
2019-04-25T04:44:43.724Z,10.30
2019-04-25T04:47:14.101Z,10.40
2019-04-25T04:49:43.950Z,10.50
2019-04-25T04:52:14.106Z,10.50
2019-04-25T04:54:43.911Z,10.60
2019-04-25T04:57:26.099Z,10.60
2019-04-25T04:59:43.846Z,10.70
2019-04-25T05:02:15.057Z,10.70
2019-04-25T05:04:45.824Z,10.80
2019-04-25T05:07:16.301Z,10.90
2019-04-25T05:09:44.851Z,10.90
2019-04-25T05:12:14.935Z,11.00
2019-04-25T05:14:43.663Z,11.10
2019-04-25T05:17:12.228Z,11.20
2019-04-25T05:19:41.103Z,11.30
2019-04-25T05:22:09.519Z,11.30
2019-04-25T05:24:37.946Z,11.40
2019-04-25T05:27:06.376Z,11.50
2019-04-25T05:29:34.812Z,11.50
2019-04-25T05:32:04.263Z,11.50
2019-04-25T05:34:34.228Z,11.50
2019-04-25T05:37:06.361Z,11.50
2019-04-25T05:39:34.557Z,11.50
2019-04-25T05:42:07.412Z,11.50
2019-04-25T05:44:34.745Z,11.70
2019-04-25T05:47:04.710Z,11.60
2019-04-25T05:49:34.254Z,11.60
2019-04-25T05:52:04.005Z,11.70
2019-04-25T05:54:33.996Z,11.70
2019-04-25T05:57:03.708Z,11.60
2019-04-25T05:59:33.739Z,11.60
2019-04-25T06:02:03.806Z,11.60
2019-04-25T06:04:33.527Z,11.60
2019-04-25T06:07:02.064Z,11.70
2019-04-25T06:09:35.838Z,11.80
2019-04-25T06:12:06.953Z,11.80
2019-04-25T06:14:35.359Z,11.90
2019-04-25T06:17:11.519Z,12.00
2019-04-25T06:19:43.413Z,12.20
2019-04-25T06:22:15.090Z,13.90
2019-04-25T06:24:45.255Z,15.90
2019-04-25T06:27:16.842Z,16.40
2019-04-25T06:29:57.664Z,15.70
2019-04-25T06:32:17.127Z,14.80
2019-04-25T06:34:45.553Z,14.20
2019-04-25T06:37:14.022Z,13.70
2019-04-25T06:39:44.115Z,13.50
2019-04-25T06:42:13.836Z,13.30
2019-04-25T06:44:44.138Z,13.20
2019-04-25T06:47:15.095Z,13.20
2019-04-25T06:49:44.082Z,13.20
2019-04-25T06:52:13.909Z,13.20
2019-04-25T06:54:43.716Z,13.20
2019-04-25T06:57:12.258Z,13.30
2019-04-25T06:59:41.472Z,13.40
2019-04-25T07:02:10.585Z,13.60
2019-04-25T07:04:39.007Z,13.60
2019-04-25T07:07:14.927Z,13.80
2019-04-25T07:09:43.353Z,14.00
2019-04-25T07:12:13.451Z,14.30
2019-04-25T07:14:43.881Z,14.90
2019-04-25T07:17:14.145Z,15.30
2019-04-25T07:19:44.096Z,15.00
2019-04-25T07:22:15.222Z,14.70
2019-04-25T07:24:43.995Z,14.40
2019-04-25T07:27:14.122Z,13.90
2019-04-25T07:29:44.198Z,13.70
2019-04-25T07:32:14.522Z,13.40
2019-04-25T07:34:43.781Z,13.30
2019-04-25T07:37:13.267Z,13.20
2019-04-25T07:39:41.902Z,13.20
2019-04-25T07:42:10.334Z,13.30
2019-04-25T07:44:49.717Z,13.20
2019-04-25T07:47:11.754Z,13.20
2019-04-25T07:49:40.178Z,13.20
2019-04-25T07:52:11.319Z,13.10
2019-04-25T07:54:38.755Z,13.00
2019-04-25T07:57:07.202Z,12.90
2019-04-25T07:59:36.405Z,12.80
2019-04-25T08:02:05.319Z,12.70
2019-04-25T08:04:35.708Z,12.70
2019-04-25T08:07:14.152Z,12.60
2019-04-25T08:09:44.138Z,12.60
2019-04-25T08:12:13.310Z,12.50
2019-04-25T08:14:43.782Z,12.50
2019-04-25T08:17:15.575Z,12.40
2019-04-25T08:19:44.312Z,12.40
2019-04-25T08:22:14.039Z,12.50
2019-04-25T08:24:44.035Z,12.70
2019-04-25T08:27:13.306Z,12.80
2019-04-25T08:29:43.617Z,13.00
2019-04-25T08:32:14.133Z,13.30
2019-04-25T08:34:44.608Z,13.40
2019-04-25T08:37:18.895Z,13.60
2019-04-25T08:39:44.927Z,13.90
2019-04-25T08:42:14.664Z,14.40
2019-04-25T08:44:43.724Z,14.60
2019-04-25T08:47:14.444Z,14.80
2019-04-25T08:49:45.912Z,14.80
2019-04-25T08:52:14.551Z,15.10
2019-04-25T08:54:47.419Z,15.30
2019-04-25T08:57:16.396Z,15.50
2019-04-25T08:59:52.246Z,15.60
2019-04-25T09:02:18.202Z,15.80
2019-04-25T09:04:48.295Z,16.40
2019-04-25T09:07:16.814Z,16.70
2019-04-25T09:09:45.254Z,16.50
2019-04-25T09:12:14.102Z,16.20
2019-04-25T09:14:44.747Z,16.00
2019-04-25T09:17:14.193Z,16.00
2019-04-25T09:19:44.454Z,16.30
2019-04-25T09:22:13.319Z,16.90
2019-04-25T09:24:42.126Z,17.40
2019-04-25T09:27:10.572Z,17.40
2019-04-25T09:29:39.038Z,17.40
2019-04-25T09:32:07.534Z,17.10
2019-04-25T09:34:35.950Z,16.80
2019-04-25T09:37:11.775Z,16.40
2019-04-25T09:39:43.451Z,16.20
2019-04-25T09:42:11.959Z,16.10
2019-04-25T09:44:42.136Z,16.20
2019-04-25T09:47:11.011Z,16.30
2019-04-25T09:49:43.303Z,16.60
2019-04-25T09:52:13.954Z,16.90
2019-04-25T09:54:45.121Z,16.80
2019-04-25T09:57:15.410Z,16.60
2019-04-25T09:59:45.076Z,16.60
2019-04-25T10:02:14.063Z,16.80
2019-04-25T10:04:43.776Z,16.60
2019-04-25T10:07:14.275Z,16.50
2019-04-25T10:09:44.585Z,16.70
2019-04-25T10:12:15.577Z,16.90
2019-04-25T10:14:47.934Z,17.00
2019-04-25T10:17:17.231Z,17.20
2019-04-25T10:19:45.696Z,17.40
2019-04-25T10:22:14.162Z,17.70
2019-04-25T10:24:42.679Z,17.70
2019-04-25T10:27:11.327Z,17.70
2019-04-25T10:29:47.299Z,17.70
2019-04-25T10:32:10.851Z,17.60
2019-04-25T10:34:39.259Z,17.80
2019-04-25T10:37:11.035Z,18.10
2019-04-25T10:39:40.122Z,17.90
2019-04-25T10:42:08.697Z,17.70
2019-04-25T10:44:37.130Z,17.70
2019-04-25T10:47:11.270Z,17.60
2019-04-25T10:49:40.578Z,17.60
2019-04-25T10:52:09.331Z,17.70
2019-04-25T10:54:37.733Z,17.70
2019-04-25T10:57:06.567Z,17.60
2019-04-25T10:59:35.145Z,17.60
2019-04-25T11:02:04.055Z,17.70
2019-04-25T11:04:34.092Z,17.70
2019-04-25T11:07:03.876Z,17.70
2019-04-25T11:09:34.056Z,17.90
2019-04-25T11:12:02.767Z,18.10
2019-04-25T11:14:31.726Z,18.10
2019-04-25T11:17:02.882Z,18.00
2019-04-25T11:19:31.287Z,17.90
2019-04-25T11:21:59.715Z,17.90
2019-04-25T11:24:28.142Z,18.20
2019-04-25T11:26:56.570Z,18.40
2019-04-25T11:29:25.146Z,18.70
2019-04-25T11:31:53.774Z,19.00
2019-04-25T11:34:22.951Z,19.10
2019-04-25T11:36:51.693Z,19.00
2019-04-25T11:39:21.846Z,18.90
2019-04-25T11:41:51.324Z,19.00
2019-04-25T11:44:19.818Z,18.90
2019-04-25T11:46:48.220Z,19.10
2019-04-25T11:49:16.778Z,19.10
2019-04-25T11:51:46.082Z,19.10
2019-04-25T11:54:14.654Z,19.40
2019-04-25T11:56:45.678Z,19.50
2019-04-25T11:59:13.760Z,19.50
2019-04-25T12:01:45.358Z,19.50
2019-04-25T12:04:14.897Z,19.70
2019-04-25T12:06:47.044Z,19.50
2019-04-25T12:09:13.922Z,19.50
2019-04-25T12:11:44.577Z,19.30
2019-04-25T12:14:12.458Z,19.20
2019-04-25T12:16:40.945Z,19.10
2019-04-25T12:19:09.359Z,19.10
2019-04-25T12:21:37.781Z,19.20
2019-04-25T12:24:06.283Z,19.40
2019-04-25T12:26:34.676Z,19.10
2019-04-25T12:29:04.349Z,18.80
2019-04-25T12:31:34.201Z,18.50
2019-04-25T12:34:03.439Z,18.50
2019-04-25T12:36:32.014Z,18.50
2019-04-25T12:39:01.078Z,18.60
2019-04-25T12:41:29.674Z,18.60
2019-04-25T12:43:59.719Z,18.80
2019-04-25T12:46:29.777Z,19.00
2019-04-25T12:48:58.179Z,19.00
2019-04-25T12:51:28.198Z,19.10
2019-04-25T12:53:56.599Z,19.30
2019-04-25T12:56:25.032Z,19.20
2019-04-25T12:58:53.881Z,19.00
2019-04-25T13:01:24.725Z,19.00
2019-04-25T13:03:54.365Z,18.90
2019-04-25T13:06:23.912Z,18.60
2019-04-25T13:08:54.099Z,18.40
2019-04-25T13:11:23.930Z,18.30
2019-04-25T13:13:52.505Z,18.20
2019-04-25T13:16:20.902Z,18.30
2019-04-25T13:18:49.332Z,18.40
2019-04-25T13:21:17.774Z,18.50
2019-04-25T13:23:46.184Z,18.60
2019-04-25T13:26:16.226Z,18.60
2019-04-25T13:28:46.290Z,18.60
2019-04-25T13:31:16.333Z,18.70
2019-04-25T13:33:46.383Z,18.80
2019-04-25T13:36:16.623Z,19.00
2019-04-25T13:38:45.278Z,18.90
2019-04-25T13:41:13.866Z,19.10
2019-04-25T13:43:42.298Z,19.10
2019-04-25T13:46:11.153Z,19.00
2019-04-25T13:48:41.057Z,18.90
2019-04-25T13:51:09.803Z,18.90
2019-04-25T13:53:38.206Z,18.80
2019-04-25T13:56:06.895Z,18.50
2019-04-25T13:58:35.318Z,18.20
2019-04-25T14:01:12.731Z,18.00
2019-04-25T14:03:35.702Z,17.90
2019-04-25T14:06:04.849Z,17.70
2019-04-25T14:08:33.631Z,17.20
2019-04-25T14:11:05.004Z,16.60
2019-04-25T14:13:32.232Z,16.00
2019-04-25T14:16:03.577Z,15.50
2019-04-25T14:18:33.649Z,15.30
2019-04-25T14:21:03.718Z,15.20
2019-04-25T14:23:34.131Z,15.30
2019-04-25T14:26:02.685Z,15.20
2019-04-25T14:28:31.825Z,15.20
2019-04-25T14:31:01.558Z,15.00
2019-04-25T14:33:30.686Z,14.90
2019-04-25T14:35:59.162Z,14.70
2019-04-25T14:38:27.587Z,14.50
2019-04-25T14:40:56.054Z,14.40
2019-04-25T14:43:24.462Z,14.40
2019-04-25T14:45:52.882Z,14.30
2019-04-25T14:48:21.298Z,14.20
2019-04-25T14:50:49.690Z,14.00
2019-04-25T14:53:18.114Z,14.00
2019-04-25T14:55:48.235Z,13.90
2019-04-25T14:58:18.308Z,13.80
2019-04-25T15:00:48.431Z,13.80
2019-04-25T15:03:16.846Z,13.90
2019-04-25T15:05:45.246Z,13.90
2019-04-25T15:08:13.726Z,13.90
2019-04-25T15:10:42.190Z,13.90
2019-04-25T15:13:10.767Z,13.90
2019-04-25T15:15:39.344Z,14.00
2019-04-25T15:18:07.911Z,14.00
2019-04-25T15:20:36.356Z,14.00
2019-04-25T15:23:04.983Z,14.10
2019-04-25T15:25:33.464Z,14.20
2019-04-25T15:28:02.009Z,14.30
2019-04-25T15:30:32.062Z,14.50
2019-04-25T15:33:00.785Z,14.70
2019-04-25T15:35:30.901Z,14.90
2019-04-25T15:38:00.958Z,15.10
2019-04-25T15:40:31.254Z,15.00
2019-04-25T15:43:01.316Z,15.10
2019-04-25T15:45:31.384Z,15.10
2019-04-25T15:47:59.969Z,15.20
2019-04-25T15:50:28.378Z,15.00
2019-04-25T15:52:56.787Z,15.00
2019-04-25T15:55:26.228Z,14.90
2019-04-25T15:57:55.378Z,14.90
2019-04-25T16:00:26.983Z,15.00
2019-04-25T16:02:55.499Z,15.10
2019-04-25T16:05:23.902Z,15.00
2019-04-25T16:07:52.350Z,15.00
2019-04-25T16:10:21.111Z,15.10
2019-04-25T16:12:49.503Z,15.30
2019-04-25T16:15:17.928Z,15.00
2019-04-25T16:17:46.325Z,14.80
2019-04-25T16:20:14.734Z,14.80
2019-04-25T16:22:44.703Z,14.70
2019-04-25T16:25:13.184Z,14.70
2019-04-25T16:27:41.597Z,14.80
2019-04-25T16:30:11.715Z,14.90
2019-04-25T16:32:40.118Z,15.10
2019-04-25T16:35:08.607Z,15.20
2019-04-25T16:37:37.006Z,15.30
2019-04-25T16:40:06.171Z,15.40
2019-04-25T16:42:34.594Z,15.40
2019-04-25T16:45:03.655Z,15.20
2019-04-25T16:47:33.071Z,15.10
2019-04-25T16:50:01.652Z,15.10
2019-04-25T16:52:30.534Z,15.20
2019-04-25T16:54:58.935Z,15.20
2019-04-25T16:57:27.337Z,15.30
2019-04-25T16:59:55.736Z,15.30
2019-04-25T17:02:33.035Z,15.40
2019-04-25T17:04:56.028Z,15.40
2019-04-25T17:07:24.690Z,15.30
2019-04-25T17:09:53.082Z,15.30
2019-04-25T17:12:21.958Z,15.20
2019-04-25T17:14:51.987Z,15.20
2019-04-25T17:17:22.098Z,15.00
2019-04-25T17:19:52.239Z,15.00
2019-04-25T17:22:21.074Z,14.90
2019-04-25T17:24:49.494Z,15.00
2019-04-25T17:27:18.250Z,15.00
2019-04-25T17:29:46.674Z,14.80
2019-04-25T17:32:16.736Z,14.80
2019-04-25T17:34:46.793Z,14.70
2019-04-25T17:37:25.924Z,14.70
2019-04-25T17:39:55.992Z,14.60
2019-04-25T17:42:24.386Z,14.60
2019-04-25T17:44:52.802Z,14.70
2019-04-25T17:47:22.071Z,14.70
2019-04-25T17:49:50.490Z,14.70
2019-04-25T17:52:18.893Z,14.70
2019-04-25T17:54:47.517Z,14.70
2019-04-25T17:57:16.132Z,14.60
2019-04-25T17:59:44.562Z,14.60
2019-04-25T18:02:13.040Z,14.60
2019-04-25T18:04:42.487Z,14.50
2019-04-25T18:07:11.049Z,14.50
2019-04-25T18:09:39.499Z,14.50
2019-04-25T18:12:07.900Z,14.50
2019-04-25T18:14:40.355Z,14.50
2019-04-25T18:17:09.153Z,14.50
2019-04-25T18:19:39.200Z,14.50
2019-04-25T18:22:09.239Z,14.50
2019-04-25T18:24:39.310Z,14.50
2019-04-25T18:27:12.475Z,14.50
2019-04-25T18:29:41.629Z,14.40
2019-04-25T18:32:10.291Z,14.40
2019-04-25T18:34:40.324Z,14.40
2019-04-25T18:37:11.942Z,14.40
2019-04-25T18:39:42.034Z,14.40
2019-04-25T18:42:12.123Z,14.30
2019-04-25T18:44:40.618Z,14.40
2019-04-25T18:47:12.063Z,14.40
2019-04-25T18:49:42.511Z,14.30
2019-04-25T18:52:12.575Z,14.20
2019-04-25T18:54:43.218Z,14.20
2019-04-25T18:57:13.470Z,14.10
2019-04-25T18:59:44.051Z,14.10
2019-04-25T19:02:14.213Z,14.10
2019-04-25T19:04:45.019Z,13.90
2019-04-25T19:07:22.396Z,13.80
2019-04-25T19:09:43.698Z,13.80
2019-04-25T19:12:12.090Z,13.80
2019-04-25T19:14:41.334Z,13.70
2019-04-25T19:17:12.853Z,13.70
2019-04-25T19:19:41.275Z,13.60
2019-04-25T19:22:09.768Z,13.60
2019-04-25T19:24:38.165Z,13.60
2019-04-25T19:27:06.656Z,13.60
2019-04-25T19:29:35.114Z,13.60
2019-04-25T19:32:03.534Z,13.60
2019-04-25T19:34:31.938Z,13.60
2019-04-25T19:37:00.346Z,13.50
2019-04-25T19:39:30.417Z,13.50
2019-04-25T19:42:00.564Z,13.50
2019-04-25T19:44:29.002Z,13.50
2019-04-25T19:46:57.433Z,13.40
2019-04-25T19:49:25.852Z,13.40
2019-04-25T19:51:54.345Z,13.40
2019-04-25T19:54:25.203Z,13.50
2019-04-25T19:56:56.369Z,13.50
2019-04-25T19:59:23.842Z,13.50
2019-04-25T20:01:53.907Z,13.50
2019-04-25T20:04:23.955Z,13.50
2019-04-25T20:06:54.023Z,13.50
2019-04-25T20:09:24.307Z,13.50
2019-04-25T20:11:54.322Z,13.50
2019-04-25T20:14:22.738Z,13.60
2019-04-25T20:16:51.735Z,13.50
2019-04-25T20:19:20.223Z,13.40
2019-04-25T20:21:48.746Z,13.30
2019-04-25T20:24:17.166Z,13.30
2019-04-25T20:26:46.338Z,13.20
2019-04-25T20:29:14.864Z,13.20
2019-04-25T20:31:45.171Z,13.20
2019-04-25T20:34:13.482Z,13.20
2019-04-25T20:36:41.959Z,13.20
2019-04-25T20:39:10.419Z,13.10
2019-04-25T20:41:38.828Z,13.10
2019-04-25T20:44:07.246Z,13.00
2019-04-25T20:46:35.743Z,13.00
2019-04-25T20:49:04.210Z,13.00
2019-04-25T20:51:34.153Z,12.90
2019-04-25T20:54:02.595Z,12.90
2019-04-25T20:56:31.062Z,12.80
2019-04-25T20:58:59.471Z,12.70
2019-04-25T21:01:27.876Z,12.70
2019-04-25T21:03:56.296Z,12.60
2019-04-25T21:06:26.451Z,12.60
2019-04-25T21:08:55.452Z,12.60
2019-04-25T21:11:23.955Z,12.50
2019-04-25T21:13:54.943Z,12.50
2019-04-25T21:16:25.038Z,12.60
2019-04-25T21:18:55.282Z,12.60
2019-04-25T21:21:23.747Z,12.50
2019-04-25T21:23:53.028Z,12.50
2019-04-25T21:26:21.476Z,12.40
2019-04-25T21:28:50.963Z,12.40
2019-04-25T21:31:19.634Z,12.40
2019-04-25T21:33:48.138Z,12.30
2019-04-25T21:36:16.808Z,12.40
2019-04-25T21:38:45.486Z,12.30
2019-04-25T21:41:15.641Z,12.30
2019-04-25T21:43:45.853Z,12.20
2019-04-25T21:46:14.650Z,12.20
2019-04-25T21:48:43.326Z,12.30
2019-04-25T21:51:13.402Z,12.30
2019-04-25T21:53:41.843Z,12.20
2019-04-25T21:56:10.335Z,12.20
2019-04-25T21:58:38.825Z,12.20
2019-04-25T22:01:09.026Z,12.20
2019-04-25T22:03:37.563Z,12.20
2019-04-25T22:06:06.526Z,12.10
2019-04-25T22:08:34.930Z,12.10
2019-04-25T22:11:03.416Z,12.10
2019-04-25T22:13:31.939Z,12.10
2019-04-25T22:16:00.534Z,12.10
2019-04-25T22:18:29.410Z,12.10
2019-04-25T22:20:58.278Z,12.10
2019-04-25T22:23:26.794Z,12.10
2019-04-25T22:25:56.303Z,12.10
2019-04-25T22:28:25.201Z,12.10
2019-04-25T22:30:55.546Z,12.10
2019-04-25T22:33:25.596Z,12.10
2019-04-25T22:35:55.655Z,12.00
2019-04-25T22:38:24.326Z,12.00
2019-04-25T22:40:52.826Z,12.10
2019-04-25T22:43:21.773Z,12.00
2019-04-25T22:45:50.438Z,12.00
2019-04-25T22:48:20.500Z,11.90
2019-04-25T22:50:49.302Z,11.90
2019-04-25T22:53:22.706Z,11.90
2019-04-25T22:55:47.815Z,11.90
2019-04-25T22:58:16.245Z,11.90
2019-04-25T23:00:44.710Z,11.90
2019-04-25T23:03:14.758Z,11.90
2019-04-25T23:05:44.790Z,11.80
2019-04-25T23:08:13.483Z,11.80
2019-04-25T23:10:41.925Z,11.80
2019-04-25T23:13:10.918Z,11.80
2019-04-25T23:15:39.463Z,11.80
2019-04-25T23:18:09.273Z,11.80
2019-04-25T23:20:37.840Z,11.80
2019-04-25T23:23:07.569Z,11.70
2019-04-25T23:25:37.778Z,11.60
2019-04-25T23:28:08.061Z,11.50
2019-04-25T23:30:38.366Z,11.50
2019-04-25T23:33:06.824Z,11.40
2019-04-25T23:35:35.550Z,11.40
2019-04-25T23:38:05.643Z,11.30
2019-04-25T23:40:34.206Z,11.20
2019-04-25T23:43:02.902Z,11.30
2019-04-25T23:45:31.290Z,11.20
2019-04-25T23:47:59.791Z,11.20
2019-04-25T23:50:28.564Z,11.10
2019-04-25T23:52:57.006Z,11.10
2019-04-25T23:55:25.804Z,11.10
2019-04-25T23:57:54.193Z,11.00
